Time;durP1;ratioP1;P1;durP2;ratioP2;P2;SDS_P1;SDS_P2;PMS_P1;PMS_P2;Temp;Humidity;BMP_temperature;BMP_pressure;BME280_temperature;BME280_humidity;BME280_pressure;Samples;Min_cycle;Max_cycle;Signal;HPM_P1;HPM_P2
2022/01/15 00:01:56;;;;;;;55.42;19.95;;;;;;;-1.28;100.00;100003.75;10408462;28;20114;-89
2022/01/15 00:06:57;;;;;;;51.78;18.27;;;;;;;-1.26;100.00;99999.09;10407460;28;20044;-86
2022/01/15 00:11:58;;;;;;;48.00;18.27;;;;;;;-1.08;100.00;100011.66;10390524;28;20037;-87
2022/01/15 00:17:15;;;;;;;58.45;21.20;;;;;;;-1.14;100.00;99994.00;10421327;28;20048;-85
2022/01/15 00:22:18;;;;;;;50.20;18.73;;;;;;;-1.31;100.00;99993.59;10384536;28;20118;-79
2022/01/15 00:27:21;;;;;;;55.15;19.00;;;;;;;-1.30;100.00;99999.69;10405977;28;20049;-81
2022/01/15 00:32:21;;;;;;;48.13;17.48;;;;;;;-1.23;100.00;99992.59;10410830;28;20053;-83
2022/01/15 00:37:24;;;;;;;52.95;18.80;;;;;;;-1.17;100.00;99989.16;10401979;28;20038;-82
2022/01/15 00:42:26;;;;;;;56.30;19.20;;;;;;;-1.30;100.00;99989.16;10401752;28;20034;-81
2022/01/15 00:47:31;;;;;;;51.22;19.33;;;;;;;-1.12;100.00;99984.06;10409148;28;20025;-82
2022/01/15 00:52:32;;;;;;;53.10;18.70;;;;;;;-1.20;100.00;99979.81;10421508;28;20093;-85
2022/01/15 00:57:34;;;;;;;46.35;16.83;;;;;;;-1.03;100.00;99976.75;10391777;28;20039;-81
2022/01/15 01:02:35;;;;;;;50.67;18.55;;;;;;;-1.07;100.00;99971.09;10406873;28;20072;-80
2022/01/15 01:07:36;;;;;;;47.75;17.58;;;;;;;-0.93;100.00;99970.03;10408227;28;20034;-79
2022/01/15 01:22:59;;;;;;;50.88;17.50;;;;;;;-0.98;100.00;99974.34;10417906;23;20042;-82
2022/01/15 01:28:10;;;;;;;59.10;20.98;;;;;;;-1.06;100.00;99972.72;10380398;28;20051;-86
2022/01/15 01:33:32;;;;;;;56.22;20.85;;;;;;;-1.10;100.00;99974.13;10363904;28;20073;-80
2022/01/15 01:38:51;;;;;;;58.15;21.58;;;;;;;-1.10;100.00;99971.50;10372273;28;20051;-83
2022/01/15 01:43:58;;;;;;;64.45;19.73;;;;;;;-0.99;100.00;99968.25;10329595;28;20051;-81
2022/01/15 01:48:59;;;;;;;58.08;19.23;;;;;;;-1.12;100.00;99955.09;10329236;28;20057;-83
2022/01/15 01:54:03;;;;;;;65.88;21.35;;;;;;;-1.19;100.00;99949.84;10363490;28;20114;-81
2022/01/15 01:59:10;;;;;;;;;;;;;;;-1.06;100.00;99943.72;10358356;28;20037;-77
2022/01/15 02:04:18;;;;;;;68.63;22.02;;;;;;;-1.18;100.00;99940.94;10373338;28;19910;-80
2022/01/15 02:09:21;;;;;;;73.25;22.30;;;;;;;-1.10;100.00;99939.06;10384499;28;20058;-79
2022/01/15 02:14:28;;;;;;;65.50;20.45;;;;;;;-1.04;100.00;99933.78;10364938;28;20046;-78
2022/01/15 02:19:34;;;;;;;67.63;22.00;;;;;;;-1.09;100.00;99922.28;10357071;28;20096;-80
2022/01/15 02:24:34;;;;;;;62.50;19.77;;;;;;;-1.09;100.00;99930.19;10351456;28;20070;-79
2022/01/15 02:29:35;;;;;;;69.07;21.85;;;;;;;-1.14;100.00;99920.25;10315693;28;20067;-77
2022/01/15 02:34:36;;;;;;;71.82;22.95;;;;;;;-1.11;100.00;99916.38;10325252;28;20070;-77
2022/01/15 02:39:38;;;;;;;67.13;21.55;;;;;;;-0.99;100.00;99912.91;10303048;28;20047;-77
2022/01/15 02:44:43;;;;;;;77.07;22.17;;;;;;;-1.01;100.00;99912.28;10302053;28;20062;-77
2022/01/15 02:49:43;;;;;;;67.22;21.10;;;;;;;-0.93;100.00;99914.69;10310026;28;20482;-77
2022/01/15 02:54:44;;;;;;;58.55;19.95;;;;;;;-0.93;100.00;99911.25;10302407;28;20129;-77
2022/01/15 02:59:45;;;;;;;56.47;18.50;;;;;;;-0.91;100.00;99904.78;10299966;28;20755;-76
2022/01/15 03:04:46;;;;;;;66.40;20.98;;;;;;;-0.98;100.00;99904.00;10332224;28;20051;-76
2022/01/15 03:09:46;;;;;;;54.22;19.20;;;;;;;-0.85;100.00;99892.59;10298648;28;20055;-78
2022/01/15 03:14:48;;;;;;;62.00;19.73;;;;;;;-0.99;100.00;99893.66;10294087;28;20078;-78
2022/01/15 03:19:49;;;;;;;62.35;20.90;;;;;;;-1.03;100.00;99893.25;10290628;28;20039;-78
2022/01/15 03:24:51;;;;;;;64.25;19.50;;;;;;;-1.01;100.00;99891.22;10297094;28;20046;-79
2022/01/15 03:29:52;;;;;;;61.92;19.58;;;;;;;-1.04;100.00;99891.63;10282633;28;20047;-78
2022/01/15 03:34:52;;;;;;;60.95;19.80;;;;;;;-1.03;100.00;99898.53;10285835;28;20047;-78
2022/01/15 03:39:53;;;;;;;60.90;19.42;;;;;;;-1.08;100.00;99887.81;10283930;28;20074;-79
2022/01/15 03:44:54;;;;;;;64.40;19.77;;;;;;;-0.96;100.00;99880.88;10284923;28;20503;-78
2022/01/15 03:49:55;;;;;;;62.53;21.25;;;;;;;-0.87;100.00;99889.34;10283807;28;20088;-78
2022/01/15 03:54:57;;;;;;;65.63;20.75;;;;;;;-0.81;100.00;99888.53;10289181;28;20916;-78
2022/01/15 03:59:59;;;;;;;55.22;19.17;;;;;;;-0.78;100.00;99884.66;10292231;28;20051;-81
2022/01/15 04:04:59;;;;;;;56.97;20.45;;;;;;;-0.78;100.00;99885.47;10285706;28;20055;-77
2022/01/15 04:10:01;;;;;;;48.72;17.65;;;;;;;-0.76;100.00;99891.31;10296625;28;20114;-81
2022/01/15 04:15:02;;;;;;;54.78;21.05;;;;;;;-0.65;100.00;99884.59;10321501;28;20034;-78
2022/01/15 04:20:04;;;;;;;49.72;19.73;;;;;;;-0.69;100.00;99889.47;10315938;28;20047;-76
2022/01/15 04:25:06;;;;;;;46.30;18.77;;;;;;;-0.70;100.00;99890.50;10293227;28;20061;-76
2022/01/15 04:30:08;;;;;;;53.03;19.10;;;;;;;-0.77;100.00;99892.34;10294078;28;20406;-78
2022/01/15 04:35:12;;;;;;;48.17;18.87;;;;;;;-0.79;100.00;99885.69;10283305;28;20051;-76
2022/01/15 04:40:15;;;;;;;54.50;19.35;;;;;;;-0.78;100.00;99882.81;10284878;28;20293;-77
2022/01/15 04:45:15;;;;;;;50.03;19.38;;;;;;;-0.69;100.00;99883.41;10285667;28;20053;-78
2022/01/15 04:50:20;;;;;;;52.30;19.52;;;;;;;-0.63;100.00;99885.22;10277321;28;20122;-77
2022/01/15 04:55:20;;;;;;;52.20;19.42;;;;;;;-0.67;100.00;99878.72;10281058;28;20114;-78
2022/01/15 05:00:22;;;;;;;52.22;18.33;;;;;;;-0.71;100.00;99874.91;10277840;28;20110;-78
2022/01/15 05:05:23;;;;;;;49.78;17.27;;;;;;;-0.74;100.00;99868.19;10291770;28;20118;-77
2022/01/15 05:10:27;;;;;;;50.15;17.05;;;;;;;-0.67;100.00;99866.34;10278282;28;20057;-78
2022/01/15 05:15:28;;;;;;;;;;;;;;;-0.69;100.00;99857.03;10278014;28;20086;-80
2022/01/15 05:20:29;;;;;;;43.97;17.63;;;;;;;-0.58;100.00;99865.06;10282741;28;19922;-80
2022/01/15 05:25:29;;;;;;;58.00;18.77;;;;;;;-0.59;100.00;99860.84;10267159;28;20062;-78
2022/01/15 05:30:31;;;;;;;53.45;20.67;;;;;;;-0.62;100.00;99863.09;10300222;28;20077;-78
2022/01/15 05:35:34;;;;;;;52.40;20.60;;;;;;;-0.59;100.00;99865.28;10286674;28;20108;-78
2022/01/15 05:40:35;;;;;;;63.85;20.23;;;;;;;-0.67;100.00;99858.44;10303151;28;20118;-77
2022/01/15 05:45:37;;;;;;;52.65;19.73;;;;;;;-0.58;100.00;99859.00;10325770;28;20073;-80
2022/01/15 05:50:39;;;;;;;53.22;18.10;;;;;;;-0.47;100.00;99853.03;10358007;28;20104;-77
2022/01/15 05:55:40;;;;;;;51.45;18.52;;;;;;;-0.44;100.00;99846.56;10336400;28;20066;-77
2022/01/15 06:00:43;;;;;;;41.63;18.95;;;;;;;-0.55;100.00;99844.56;10318350;28;20054;-77
2022/01/15 06:05:45;;;;;;;46.67;18.48;;;;;;;-0.60;100.00;99837.31;10329731;28;20035;-81
2022/01/15 06:10:45;;;;;;;44.10;18.15;;;;;;;-0.57;100.00;99839.53;10346356;28;20061;-79
2022/01/15 06:15:46;;;;;;;44.40;17.02;;;;;;;-0.45;100.00;99829.94;10275940;28;20043;-78
2022/01/15 06:20:48;;;;;;;42.97;16.48;;;;;;;-0.45;100.00;99839.66;10261255;28;20120;-78
2022/01/15 06:25:49;;;;;;;47.20;18.42;;;;;;;-0.32;100.00;99837.75;10289314;28;20035;-77
2022/01/15 06:30:49;;;;;;;45.10;16.88;;;;;;;-0.41;100.00;99840.84;10279856;28;20517;-76
2022/01/15 06:35:50;;;;;;;40.65;16.10;;;;;;;-0.31;100.00;99836.72;10284761;28;20067;-75
2022/01/15 06:40:52;;;;;;;44.92;17.85;;;;;;;-0.42;100.00;99834.78;10272615;28;20080;-77
2022/01/15 06:45:53;;;;;;;42.17;17.33;;;;;;;-0.40;100.00;99856.47;10311762;28;20154;-76
2022/01/15 06:50:54;;;;;;;36.55;16.20;;;;;;;-0.34;100.00;99846.91;10282088;28;20157;-75
2022/01/15 06:55:56;;;;;;;37.95;17.63;;;;;;;-0.38;100.00;99857.03;10266906;28;20102;-77
2022/01/15 07:00:58;;;;;;;38.55;16.35;;;;;;;-0.25;100.00;99842.19;10316884;28;20074;-77
2022/01/15 07:05:58;;;;;;;47.97;18.67;;;;;;;-0.37;100.00;99836.75;10314568;28;20050;-77
2022/01/15 07:11:00;;;;;;;50.13;19.02;;;;;;;-0.30;100.00;99834.88;10308595;28;20051;-79
2022/01/15 07:16:01;;;;;;;47.25;18.05;;;;;;;-0.21;100.00;99835.44;10333142;28;20047;-81
2022/01/15 07:21:02;;;;;;;52.67;19.40;;;;;;;-0.32;100.00;99835.09;10328701;28;20050;-80
2022/01/15 07:26:04;;;;;;;52.25;19.40;;;;;;;-0.26;100.00;99832.66;10336832;23;20152;-77
2022/01/15 07:31:06;;;;;;;57.70;20.02;;;;;;;-0.30;100.00;99826.97;10300321;28;20058;-78
2022/01/15 07:36:07;;;;;;;52.35;18.30;;;;;;;-0.29;100.00;99834.66;10317389;28;20063;-79
2022/01/15 07:41:13;;;;;;;57.30;19.88;;;;;;;-0.30;100.00;99833.06;10278795;28;20074;-80
2022/01/15 07:46:17;;;;;;;50.33;19.08;;;;;;;-0.35;100.00;99832.09;10281777;28;20047;-80
2022/01/15 07:51:17;;;;;;;54.63;20.33;;;;;;;-0.30;100.00;99830.41;10279147;28;20073;-76
2022/01/15 07:56:18;;;;;;;52.67;20.45;;;;;;;-0.25;100.00;99837.72;10269262;28;20045;-80
2022/01/15 08:01:20;;;;;;;47.80;18.98;;;;;;;-0.20;100.00;99834.41;10276010;28;20055;-78
2022/01/15 08:06:20;;;;;;;59.30;19.48;;;;;;;-0.18;100.00;99824.44;10275134;28;20378;-79
2022/01/15 08:11:21;;;;;;;58.60;20.85;;;;;;;-0.20;100.00;99831.78;10288478;28;20055;-77
2022/01/15 08:16:21;;;;;;;45.83;18.58;;;;;;;-0.05;100.00;99825.16;10300387;28;20142;-78
2022/01/15 08:21:22;;;;;;;50.70;19.27;;;;;;;0.13;100.00;99821.75;10333835;28;20050;-79
2022/01/15 08:26:23;;;;;;;47.58;19.45;;;;;;;0.13;100.00;99819.13;10315153;28;20062;-80
2022/01/15 08:31:26;;;;;;;48.30;19.55;;;;;;;0.21;100.00;99832.06;10302987;28;20100;-79
2022/01/15 08:36:28;;;;;;;46.90;18.27;;;;;;;0.26;100.00;99823.47;10311922;28;20054;-83
2022/01/15 08:41:28;;;;;;;45.35;18.30;;;;;;;0.31;100.00;99822.81;10316223;28;20027;-81
2022/01/15 08:46:29;;;;;;;39.88;16.95;;;;;;;0.37;100.00;99809.56;10313556;28;20065;-82
2022/01/15 08:51:30;;;;;;;41.35;17.10;;;;;;;0.69;100.00;99817.34;10319508;28;20055;-82
2022/01/15 08:56:31;;;;;;;33.95;16.27;;;;;;;0.57;100.00;99814.63;10321365;28;20035;-82
2022/01/15 09:01:33;;;;;;;38.78;15.27;;;;;;;0.45;100.00;99816.38;10308669;28;20066;-81
2022/01/15 09:06:34;;;;;;;36.10;16.05;;;;;;;0.57;100.00;99818.09;10342372;28;20054;-81
2022/01/15 09:11:36;;;;;;;41.93;17.37;;;;;;;0.59;100.00;99817.88;10312426;28;20062;-79
2022/01/15 09:16:36;;;;;;;40.05;17.23;;;;;;;0.53;100.00;99816.09;10327781;28;20186;-81
2022/01/15 09:21:37;;;;;;;37.90;15.93;;;;;;;0.76;100.00;99823.38;10301892;28;20050;-81
2022/01/15 09:26:48;;;;;;;41.88;17.05;;;;;;;0.91;100.00;99812.41;10309982;28;20138;-79
2022/01/15 09:31:49;;;;;;;39.13;15.90;;;;;;;0.95;100.00;99814.41;10287468;28;20050;-80
2022/01/15 09:36:50;;;;;;;43.10;17.13;;;;;;;0.96;100.00;99816.00;10258909;28;20035;-81
2022/01/15 09:41:54;;;;;;;44.97;18.48;;;;;;;1.24;100.00;99817.28;10288309;28;20047;-80
2022/01/15 09:46:57;;;;;;;45.90;19.88;;;;;;;1.40;100.00;99811.38;10272244;28;20098;-78
2022/01/15 09:52:01;;;;;;;40.33;16.58;;;;;;;1.57;100.00;99806.25;10283010;28;20078;-79
2022/01/15 09:57:01;;;;;;;35.20;15.80;;;;;;;1.75;100.00;99794.78;10283923;28;20054;-79
2022/01/15 10:02:05;;;;;;;36.92;16.13;;;;;;;1.52;100.00;99788.41;10282598;28;20111;-82
2022/01/15 10:07:10;;;;;;;29.85;14.77;;;;;;;1.52;100.00;99788.41;10325611;28;20082;-77
2022/01/15 10:12:22;;;;;;;31.92;14.90;;;;;;;1.93;100.00;99779.63;10320619;28;20086;-80
2022/01/15 10:17:38;;;;;;;27.27;15.85;;;;;;;1.44;100.00;99775.50;10313251;28;20047;-80
2022/01/15 10:22:46;;;;;;;36.47;15.98;;;;;;;1.52;100.00;99782.31;10312833;23;20063;-80
2022/01/15 10:27:47;;;;;;;;;;;;;;;1.78;100.00;99781.88;10314908;28;20115;-80
2022/01/15 10:32:53;;;;;;;32.33;15.98;;;;;;;1.92;100.00;99771.88;10336730;28;19921;-78
2022/01/15 10:37:57;;;;;;;33.53;16.55;;;;;;;2.06;100.00;99769.81;10340151;28;20022;-78
2022/01/15 10:43:00;;;;;;;31.98;15.73;;;;;;;2.06;100.00;99765.34;10341113;28;20102;-81
2022/01/15 10:48:08;;;;;;;32.60;14.32;;;;;;;2.03;100.00;99757.84;10363561;28;20035;-79
2022/01/15 10:53:12;;;;;;;34.00;15.52;;;;;;;2.00;100.00;99760.94;10378456;28;20046;-82
2022/01/15 10:58:16;;;;;;;32.70;15.77;;;;;;;2.10;100.00;99753.22;10353205;28;20034;-77
2022/01/15 11:03:17;;;;;;;34.85;16.05;;;;;;;2.02;100.00;99742.22;10342523;28;20502;-79
2022/01/15 11:08:23;;;;;;;34.03;15.70;;;;;;;2.33;100.00;99730.41;10350648;28;20054;-78
2022/01/15 11:13:47;;;;;;;32.85;15.90;;;;;;;2.83;100.00;99720.00;10337700;28;20050;-78
2022/01/15 11:18:51;;;;;;;28.50;13.07;;;;;;;2.87;100.00;99707.09;10308766;28;20045;-79
2022/01/15 11:23:53;;;;;;;32.47;15.25;;;;;;;2.93;100.00;99706.16;10319840;28;20114;-78
2022/01/15 11:28:57;;;;;;;22.65;12.52;;;;;;;3.09;100.00;99698.22;10337440;28;20058;-77
2022/01/15 11:34:03;;;;;;;20.88;10.60;;;;;;;3.29;100.00;99684.53;10344709;28;20069;-80
2022/01/15 11:39:07;;;;;;;23.48;10.88;;;;;;;3.24;100.00;99670.34;10357466;28;20064;-79
2022/01/15 11:44:12;;;;;;;19.90;9.57;;;;;;;3.21;100.00;99654.94;10389275;28;20133;-81
2022/01/15 11:49:33;;;;;;;10.98;6.25;;;;;;;3.33;100.00;99645.03;10371364;28;20095;-77
2022/01/15 11:54:33;;;;;;;8.55;5.40;;;;;;;3.41;100.00;99641.97;10350534;28;20050;-78
2022/01/15 11:59:56;;;;;;;17.88;9.63;;;;;;;3.43;100.00;99650.50;10331097;28;20114;-80
2022/01/15 12:05:22;;;;;;;11.52;6.03;;;;;;;3.34;100.00;99630.72;10326305;28;20110;-81
2022/01/15 12:10:39;;;;;;;12.52;7.05;;;;;;;3.42;100.00;99627.66;10346764;28;20085;-80
2022/01/15 12:15:40;;;;;;;8.40;4.72;;;;;;;3.13;100.00;99627.75;10371616;28;20865;-80
2022/01/15 12:20:41;;;;;;;7.03;5.05;;;;;;;3.14;100.00;99620.59;10354394;28;20046;-79
2022/01/15 12:25:44;;;;;;;10.10;6.50;;;;;;;3.18;100.00;99620.91;10337769;28;20042;-81
2022/01/15 12:30:51;;;;;;;11.93;7.33;;;;;;;3.29;100.00;99607.56;10383134;28;20572;-80
2022/01/15 12:35:55;;;;;;;11.65;6.43;;;;;;;3.18;100.00;99599.69;10364725;28;20049;-82
2022/01/15 12:41:02;;;;;;;10.77;6.43;;;;;;;3.06;100.00;99602.41;10392433;28;20105;-79
2022/01/15 12:46:06;;;;;;;8.65;5.40;;;;;;;3.06;100.00;99595.25;10341858;28;20382;-80
2022/01/15 12:51:14;;;;;;;7.88;4.88;;;;;;;3.02;100.00;99580.09;10341209;28;20061;-79
2022/01/15 12:56:19;;;;;;;7.97;5.53;;;;;;;3.06;100.00;99566.09;10374414;28;20050;-79
2022/01/15 13:01:22;;;;;;;7.00;5.05;;;;;;;3.18;100.00;99563.34;10330961;28;20042;-78
2022/01/15 13:06:26;;;;;;;6.28;4.22;;;;;;;3.17;100.00;99556.44;10339491;28;20110;-79
2022/01/15 13:11:31;;;;;;;6.95;4.30;;;;;;;3.09;100.00;99544.38;10371348;28;20416;-78
2022/01/15 13:16:33;;;;;;;5.63;3.58;;;;;;;3.10;100.00;99542.53;10355723;28;20050;-77
2022/01/15 13:21:36;;;;;;;6.53;4.00;;;;;;;3.02;100.00;99538.47;10378203;28;20336;-80
2022/01/15 13:26:42;;;;;;;5.63;4.20;;;;;;;3.03;100.00;99526.00;10367200;28;20133;-79
2022/01/15 13:31:45;;;;;;;5.03;3.83;;;;;;;3.02;100.00;99529.69;10337516;28;20085;-78
2022/01/15 13:36:47;;;;;;;6.93;3.50;;;;;;;2.97;100.00;99522.47;10359219;28;20072;-79
2022/01/15 13:41:49;;;;;;;5.07;3.28;;;;;;;2.81;100.00;99517.97;10373678;28;20077;-78
2022/01/15 13:46:50;;;;;;;5.80;4.00;;;;;;;2.85;100.00;99517.25;10355687;28;20189;-78
2022/01/15 13:57:35;;;;;;;6.53;4.38;;;;;;;3.07;100.00;99509.34;10370163;28;20047;-79
2022/01/15 14:02:50;;;;;;;5.15;3.78;;;;;;;2.91;100.00;99512.00;10369380;28;20049;-79
2022/01/15 14:07:52;;;;;;;6.55;3.78;;;;;;;2.82;100.00;99506.31;10385752;28;20093;-78
2022/01/15 14:13:06;;;;;;;4.47;3.50;;;;;;;2.74;100.00;99496.09;10385450;28;20050;-81
2022/01/15 14:18:11;;;;;;;5.55;3.80;;;;;;;2.63;100.00;99495.16;10389897;28;20031;-78
2022/01/15 14:23:39;;;;;;;8.02;4.32;;;;;;;2.50;100.00;99495.47;10360624;23;20069;-78
2022/01/15 14:28:39;;;;;;;6.25;4.35;;;;;;;2.42;100.00;99499.31;10342415;28;20038;-81
2022/01/15 14:33:53;;;;;;;6.22;4.22;;;;;;;2.55;100.00;99492.88;10369654;28;20057;-81
2022/01/15 14:39:03;;;;;;;5.55;3.78;;;;;;;2.61;100.00;99491.13;10380465;28;20030;-81
2022/01/15 14:44:37;;;;;;;6.57;4.22;;;;;;;2.66;100.00;99492.03;10375179;28;20042;-79
2022/01/15 14:49:39;;;;;;;7.78;4.68;;;;;;;2.44;100.00;99493.78;10352329;28;20068;-78
2022/01/15 14:54:40;;;;;;;8.40;4.82;;;;;;;2.46;100.00;99489.03;10406735;28;20072;-82
2022/01/15 14:59:41;;;;;;;6.40;4.60;;;;;;;2.27;100.00;99491.09;10355706;28;20050;-79
2022/01/15 15:05:00;;;;;;;7.95;5.10;;;;;;;1.98;100.00;99490.31;10375635;28;20029;-81
2022/01/15 15:10:06;;;;;;;8.85;5.38;;;;;;;1.85;100.00;99498.56;10405991;28;20046;-80
2022/01/15 15:15:10;;;;;;;8.70;6.10;;;;;;;1.69;100.00;99489.50;10367279;28;20042;-80
2022/01/15 15:20:15;;;;;;;;;;;;;;;1.51;100.00;99501.06;10350152;28;20038;-81
2022/01/15 15:25:18;;;;;;;7.85;5.63;;;;;;;1.46;100.00;99500.94;10350704;28;19922;-79
2022/01/15 15:30:20;;;;;;;8.48;5.20;;;;;;;1.31;100.00;99493.50;10323167;28;20057;-79
2022/01/15 15:35:30;;;;;;;9.85;6.10;;;;;;;1.15;100.00;99488.91;10321506;28;20049;-77
2022/01/15 15:40:31;;;;;;;9.70;5.72;;;;;;;0.87;100.00;99486.19;10343051;28;20114;-78
2022/01/15 15:45:32;;;;;;;9.02;5.80;;;;;;;0.63;100.00;99486.16;10321334;28;20117;-79
2022/01/15 15:50:33;;;;;;;7.88;5.38;;;;;;;0.45;100.00;99494.97;10322466;28;20039;-78
2022/01/15 15:55:38;;;;;;;10.00;6.25;;;;;;;0.30;100.00;99481.41;10362863;28;20046;-78
2022/01/15 16:00:40;;;;;;;11.55;7.93;;;;;;;0.09;100.00;99479.25;10351832;28;20100;-78
2022/01/15 16:05:40;;;;;;;11.52;7.72;;;;;;;-0.16;100.00;99482.84;10322201;28;20047;-79
2022/01/15 16:10:43;;;;;;;10.30;6.43;;;;;;;-0.35;100.00;99482.09;10321015;28;20137;-77
2022/01/15 16:15:44;;;;;;;14.57;7.57;;;;;;;-0.59;100.00;99496.97;10343257;28;20125;-78
2022/01/15 16:20:44;;;;;;;12.27;7.57;;;;;;;-0.69;100.00;99507.22;10321582;28;20054;-78
2022/01/15 16:25:45;;;;;;;11.23;6.57;;;;;;;-0.83;100.00;99500.47;10350183;28;20046;-80
2022/01/15 16:30:47;;;;;;;13.18;8.20;;;;;;;-0.95;100.00;99510.91;10334214;28;20061;-78
2022/01/15 16:35:51;;;;;;;17.92;9.90;;;;;;;-1.05;100.00;99520.34;10326914;28;20047;-78
2022/01/15 16:40:53;;;;;;;16.10;9.77;;;;;;;-1.23;100.00;99519.28;10330178;28;20077;-78
2022/01/15 16:45:53;;;;;;;17.42;9.80;;;;;;;-1.32;100.00;99511.88;10368007;28;20117;-76
2022/01/15 16:50:54;;;;;;;17.67;10.48;;;;;;;-1.46;100.00;99506.72;10358859;28;20047;-79
2022/01/15 16:55:55;;;;;;;19.15;12.15;;;;;;;-1.45;100.00;99512.78;10336524;28;20085;-79
2022/01/15 17:00:57;;;;;;;18.73;11.48;;;;;;;-1.55;100.00;99513.28;10334351;28;20030;-80
2022/01/15 17:06:04;;;;;;;19.95;13.30;;;;;;;-1.65;100.00;99512.91;10340666;28;20101;-79
2022/01/15 17:11:06;;;;;;;24.88;16.98;;;;;;;-1.78;100.00;99508.53;10322834;28;20057;-79
2022/01/15 17:16:06;;;;;;;28.65;16.50;;;;;;;-1.87;100.00;99511.66;10339242;28;20101;-79
2022/01/15 17:21:11;;;;;;;31.60;17.73;;;;;;;-1.94;100.00;99497.72;10307009;28;20049;-79
2022/01/15 17:26:11;;;;;;;24.05;16.58;;;;;;;-1.97;100.00;99498.16;10354592;28;20057;-81
2022/01/15 17:31:12;;;;;;;22.52;14.88;;;;;;;-2.11;100.00;99485.06;10358967;28;20047;-82
2022/01/15 17:36:12;;;;;;;19.30;13.43;;;;;;;-2.12;100.00;99495.78;10370768;28;20054;-80
2022/01/15 17:41:14;;;;;;;19.48;12.93;;;;;;;-2.15;100.00;99489.13;10369653;28;20050;-82
2022/01/15 17:46:15;;;;;;;24.90;14.75;;;;;;;-2.14;100.00;99493.38;10327304;28;20074;-76
2022/01/15 17:51:16;;;;;;;22.67;14.27;;;;;;;-2.24;100.00;99500.91;10332266;28;20054;-77
2022/01/15 17:56:16;;;;;;;21.60;13.35;;;;;;;-2.25;100.00;99493.25;10320547;28;20042;-78
2022/01/15 18:01:18;;;;;;;21.63;15.23;;;;;;;-2.23;100.00;99484.13;10325037;28;20043;-78
2022/01/15 18:06:21;;;;;;;24.25;15.48;;;;;;;-2.27;100.00;99474.25;10328682;28;20133;-78
2022/01/15 18:11:22;;;;;;;21.13;14.40;;;;;;;-2.40;100.00;99467.22;10358848;28;20053;-77
2022/01/15 18:16:23;;;;;;;22.45;13.95;;;;;;;-2.48;100.00;99460.38;10359949;28;20054;-79
2022/01/15 18:21:23;;;;;;;24.23;15.80;;;;;;;-2.56;100.00;99458.00;10364266;28;20425;-78
2022/01/15 18:26:25;;;;;;;24.55;15.77;;;;;;;-2.53;100.00;99459.41;10334688;28;20062;-77
2022/01/15 18:31:25;;;;;;;31.90;17.77;;;;;;;-2.59;100.00;99453.94;10362689;28;20084;-79
2022/01/15 18:36:27;;;;;;;23.70;15.57;;;;;;;-2.71;100.00;99447.72;10373748;28;20069;-79
2022/01/15 18:41:27;;;;;;;31.50;16.85;;;;;;;-2.71;100.00;99446.94;10356942;28;20041;-79
2022/01/15 18:46:33;;;;;;;28.43;16.77;;;;;;;-2.71;100.00;99446.94;10367734;28;20053;-81
2022/01/15 18:51:37;;;;;;;28.15;16.77;;;;;;;-2.72;100.00;99435.63;10383876;28;20057;-79
2022/01/15 18:56:37;;;;;;;26.52;15.73;;;;;;;-2.71;100.00;99436.41;10356087;28;20046;-76
2022/01/15 19:01:38;;;;;;;27.27;15.48;;;;;;;-2.71;100.00;99441.66;10358837;28;20057;-78
2022/01/15 19:06:40;;;;;;;21.85;14.05;;;;;;;-2.84;100.00;99434.63;10367118;28;20073;-83
2022/01/15 19:11:40;;;;;;;24.17;14.20;;;;;;;-2.91;100.00;99445.19;10354577;28;20077;-76
2022/01/15 19:16:41;;;;;;;24.65;14.02;;;;;;;-2.86;100.00;99447.97;10355782;28;20091;-77
2022/01/15 19:21:42;;;;;;;27.25;15.25;;;;;;;-2.79;100.00;99466.34;10391127;23;20343;-79
2022/01/15 19:26:42;;;;;;;25.88;14.13;;;;;;;-2.88;100.00;99530.63;10301112;28;20043;-78
2022/01/15 19:31:43;;;;;;;25.10;14.90;;;;;;;-2.78;100.00;99554.66;10282208;28;20047;-78
2022/01/15 19:36:44;;;;;;;25.40;14.20;;;;;;;-2.87;100.00;99482.34;10276414;28;20050;-79
2022/01/15 19:41:46;;;;;;;23.38;14.70;;;;;;;-2.97;100.00;99413.66;10279508;28;20428;-77
2022/01/15 19:46:49;;;;;;;19.60;12.98;;;;;;;-3.08;100.00;99402.00;10249663;28;20470;-77
2022/01/15 19:51:50;;;;;;;26.00;15.90;;;;;;;-3.09;100.00;99362.81;10298426;28;20110;-78
2022/01/15 19:56:54;;;;;;;23.88;13.98;;;;;;;-3.19;100.00;99360.63;10275089;28;20225;-79
2022/01/15 20:01:56;;;;;;;22.08;13.20;;;;;;;-3.28;100.00;99383.69;10316295;28;20061;-77
2022/01/15 20:06:57;;;;;;;19.33;12.38;;;;;;;-3.28;100.00;99404.69;10263049;28;20066;-77
2022/01/15 20:11:58;;;;;;;21.63;13.20;;;;;;;-3.25;100.00;99399.00;10258628;28;20058;-76
2022/01/15 20:16:59;;;;;;;21.30;11.95;;;;;;;-3.27;100.00;99416.78;10283321;28;20054;-77
2022/01/15 20:22:01;;;;;;;22.33;12.07;;;;;;;-3.30;100.00;99400.63;10270219;28;20046;-81
2022/01/15 20:27:03;;;;;;;18.90;11.65;;;;;;;-3.35;100.00;99401.25;10218669;28;20140;-77
2022/01/15 20:32:07;;;;;;;20.67;12.90;;;;;;;-3.26;100.00;99423.66;10245638;28;20511;-77
2022/01/15 20:37:10;;;;;;;26.40;15.10;;;;;;;-3.26;100.00;99401.84;10222597;28;20074;-78
2022/01/15 20:42:11;;;;;;;20.20;12.57;;;;;;;-3.30;100.00;99425.03;10250280;28;20055;-76
2022/01/15 20:47:12;;;;;;;23.08;12.65;;;;;;;-3.46;100.00;99404.50;10225869;28;20530;-75
2022/01/15 20:52:13;;;;;;;23.63;12.40;;;;;;;-3.36;100.00;99407.50;10243416;28;20529;-76
2022/01/15 20:57:15;;;;;;;27.98;13.57;;;;;;;-3.21;100.00;99421.19;10261066;28;20055;-82
2022/01/15 21:02:17;;;;;;;27.80;14.00;;;;;;;-2.95;100.00;99407.19;10292614;28;20049;-81
2022/01/15 21:07:17;;;;;;;25.88;14.73;;;;;;;-2.70;100.00;99417.81;10277951;28;20094;-82
2022/01/15 21:12:18;;;;;;;34.20;17.00;;;;;;;-2.48;100.00;99423.56;10262738;28;20058;-77
2022/01/15 21:17:20;;;;;;;39.38;18.45;;;;;;;-2.25;100.00;99382.81;10251963;28;20067;-76
2022/01/15 21:22:20;;;;;;;32.08;17.15;;;;;;;-2.15;100.00;99386.56;10258346;28;20128;-78
2022/01/15 21:27:21;;;;;;;30.77;16.13;;;;;;;-1.98;100.00;99391.31;10257210;28;20059;-77
2022/01/15 21:32:22;;;;;;;35.03;18.75;;;;;;;-1.76;100.00;99389.91;10240561;28;20051;-76
2022/01/15 21:37:22;;;;;;;34.97;19.17;;;;;;;-1.69;100.00;99389.88;10251202;28;20054;-78
2022/01/15 21:42:23;;;;;;;38.25;20.30;;;;;;;-1.69;100.00;99395.13;10234439;28;20048;-77
2022/01/15 21:47:23;;;;;;;37.08;19.48;;;;;;;-1.54;100.00;99379.81;10225231;28;20114;-77
2022/01/15 21:52:24;;;;;;;42.95;22.10;;;;;;;-1.30;100.00;99388.69;10232274;28;20051;-76
2022/01/15 21:57:24;;;;;;;36.03;20.30;;;;;;;-1.35;100.00;99378.00;10222917;28;20578;-78
2022/01/15 22:02:25;;;;;;;41.03;19.02;;;;;;;-1.30;100.00;99384.22;10234328;28;20137;-76
2022/01/15 22:07:26;;;;;;;37.58;19.40;;;;;;;-1.26;100.00;99384.59;10206509;28;20059;-76
2022/01/15 22:12:34;;;;;;;41.53;20.83;;;;;;;-1.27;100.00;99377.72;10233555;28;20836;-77
2022/01/15 22:17:35;;;;;;;36.95;19.83;;;;;;;-1.22;100.00;99370.75;10232196;28;20067;-76
2022/01/15 22:22:36;;;;;;;37.10;19.17;;;;;;;-1.16;100.00;99369.91;10211531;28;20522;-76
2022/01/15 22:27:37;;;;;;;41.28;21.63;;;;;;;-1.15;100.00;99379.41;10218572;28;20053;-77
2022/01/15 22:32:39;;;;;;;38.78;19.25;;;;;;;-1.11;100.00;99386.84;10216524;28;20161;-78
2022/01/15 22:37:39;;;;;;;39.00;20.60;;;;;;;-1.06;100.00;99389.66;10221119;28;20406;-77
2022/01/15 22:42:40;;;;;;;36.88;19.25;;;;;;;-1.03;100.00;99399.75;10231592;28;20074;-82
2022/01/15 22:47:42;;;;;;;35.63;19.58;;;;;;;-1.04;100.00;99393.66;10240136;28;20047;-77
2022/01/15 22:52:43;;;;;;;37.53;19.70;;;;;;;-0.97;100.00;99383.88;10210831;28;20048;-75
2022/01/15 22:57:44;;;;;;;39.72;19.85;;;;;;;-0.70;100.00;99373.00;10227633;28;20086;-76
2022/01/15 23:02:45;;;;;;;36.45;19.48;;;;;;;-0.68;100.00;99368.31;10206603;28;20571;-76
2022/01/15 23:07:45;;;;;;;41.35;20.48;;;;;;;-0.71;100.00;99364.28;10220223;28;20055;-76